Terminal Aerodrome Forecast
Issued by NWS

Home | Current Version | Previous Version | Text Only | Print | Product List | Glossary On
Versions: 1 2 3 4 5 6 7 8 9 10 11 12 13 14
815
FTUS41 KLWX 091511 AAB
TAFMTN
TAF AMD
KMTN 091511Z 0915/1012 04005KT 1SM -SN OVC007
      TEMPO 0915/0917 1/2SM SN OVC003
     FM092000 35006KT 4SM -SHSN OVC020
     FM100500 28008KT P6SM OVC040=

USA.gov is the U.S. government's official web portal to all federal, state and local government web resources and services.